Urbanette, Arkansas
Current Conditions -  °F | °C
As of 10:53 AM on Friday 28 Nov 2014 (Local Time) from KHRO Reporting Station
Clear Clear  
Wind Chill: 50°   Ceiling: Unl
Heat Index: 50°   Visibility: 10mi
Dew Point: 31°   Wind: 13mph
Humidity: 48%   Direction: 140°SE
Pressure: 30.15"   Gusts: NA
Location:  36.3056°N, 93.5491°W
Report Text: KHRO 281653Z AUTO 14011KT 10SM CLR 10/M01 A3015 RMK AO2 SLP213 T01001006
Loading
Personal Weather Stations






























Interactive Weather Map New forecast layout! Learn more

10-Day Weather Forecast

Advertisements
Track Severe Weather on mobile